EPKK/KRK METAR and TAF weather

Enter ICAO airport designator
Station Type Date Time Source
EPKK METAR 2020/09/18 21:00 UTC NOAA

EPKK 182100Z VRB01KT CAVOK 08/05 Q1028


Station Type Date Time Source
EPKK Decoded METAR 2020/09/18 21:00 UTC NOAA

Krakow, Poland (EPKK) 50-05N 019-48E 237M
Sep 18, 2020 - 05:00 PM EDT / 2020.09.18 2100 UTC
Wind: Variable at 1 MPH (1 KT):0
Visibility: greater than 7 mile(s):0
Temperature: 46 F (8 C)
Dew Point: 41 F (5 C)
Relative Humidity: 81%
Pressure (altimeter): 30.36 in. Hg (1028 hPa)
ob: EPKK 182100Z VRB01KT CAVOK 08/05 Q1028
cycle: 21

Station Type Date Time Source
EPKK TAF 2020/09/18 21:35 UTC NOAA

TAF EPKK 182030Z 1821/1921 VRB02KT CAVOK
BECMG 1907/1910 07010KT

Example: see airport list